Time;durP1;ratioP1;P1;durP2;ratioP2;P2;SDS_P1;SDS_P2;PMS_P1;PMS_P2;Temp;Humidity;BMP_temperature;BMP_pressure;BME280_temperature;BME280_humidity;BME280_pressure;Samples;Min_cycle;Max_cycle;Signal;HPM_P1;HPM_P2
2022/04/25 00:00:21;;;;;;;17.47;16.37;;;;;;;;;;5037208;28;20454;-71
2022/04/25 00:02:59;;;;;;;13.47;11.97;;;;;;;;;;5036204;28;20877;-71
2022/04/25 00:05:27;;;;;;;12.30;9.20;;;;;;;;;;5036440;28;20515;-72
2022/04/25 00:07:54;;;;;;;11.27;7.23;;;;;;;;;;5036301;28;20549;-71
2022/04/25 00:10:25;;;;;;;11.23;6.73;;;;;;;;;;5035983;28;20482;-72
2022/04/25 00:12:53;;;;;;;16.37;9.37;;;;;;;;;;5036639;28;20470;-72
2022/04/25 00:15:21;;;;;;;11.23;6.93;;;;;;;;;;5036036;28;20450;-72
2022/04/25 00:17:51;;;;;;;9.67;8.77;;;;;;;;;;5035904;28;20988;-72
2022/04/25 00:20:19;;;;;;;12.40;11.20;;;;;;;;;;5036087;28;20438;-72
2022/04/25 00:22:46;;;;;;;11.07;10.07;;;;;;;;;;5036138;28;20549;-72
2022/04/25 00:25:15;;;;;;;18.07;16.77;;;;;;;;;;5036897;28;20450;-73
2022/04/25 00:27:42;;;;;;;14.93;11.80;;;;;;;;;;5036025;28;20542;-73
2022/04/25 00:30:11;;;;;;;15.90;14.30;;;;;;;;;;5036316;28;20486;-73
2022/04/25 00:32:38;;;;;;;12.60;10.67;;;;;;;;;;5036171;28;20863;-72
2022/04/25 00:35:09;;;;;;;34.97;32.47;;;;;;;;;;5036719;28;20439;-73
2022/04/25 00:37:37;;;;;;;52.67;48.07;;;;;;;;;;5036498;28;20472;-73
2022/04/25 00:40:13;;;;;;;61.93;55.93;;;;;;;;;;5036221;28;20813;-72
2022/04/25 00:42:41;;;;;;;11.73;10.90;;;;;;;;;;5036395;28;20477;-72
2022/04/25 00:45:11;;;;;;;28.63;26.17;;;;;;;;;;5035018;28;20466;-72
2022/04/25 00:47:39;;;;;;;43.37;39.97;;;;;;;;;;5035423;28;20532;-72
2022/04/25 00:50:09;;;;;;;10.80;9.80;;;;;;;;;;5035661;28;20458;-72
2022/04/25 00:52:40;;;;;;;10.53;7.87;;;;;;;;;;5035220;28;20938;-72
2022/04/25 00:55:09;;;;;;;6.90;5.73;;;;;;;;;;5035337;28;20450;-72
2022/04/25 00:57:37;;;;;;;32.23;29.83;;;;;;;;;;5035808;28;20462;-72
2022/04/25 01:00:08;;;;;;;34.07;31.10;;;;;;;;;;5035747;28;20453;-72
2022/04/25 01:02:36;;;;;;;38.57;35.17;;;;;;;;;;5035301;28;20916;-71
2022/04/25 01:05:05;;;;;;;20.93;19.10;;;;;;;;;;5035784;28;20462;-71
2022/04/25 01:07:36;;;;;;;19.47;18.17;;;;;;;;;;5035683;28;20509;-71
2022/04/25 01:10:04;;;;;;;27.53;25.67;;;;;;;;;;5035958;28;20801;-72
2022/04/25 01:12:31;;;;;;;12.10;7.87;;;;;;;;;;5035661;28;20462;-72
2022/04/25 01:15:03;;;;;;;11.43;9.20;;;;;;;;;;5035299;28;20473;-72
2022/04/25 01:17:31;;;;;;;11.20;7.77;;;;;;;;;;5035133;28;20486;-72
2022/04/25 01:20:00;;;;;;;27.37;25.57;;;;;;;;;;5036531;28;20466;-72
2022/04/25 01:22:32;;;;;;;44.80;41.67;;;;;;;;;;5036105;28;20458;-72
2022/04/25 01:27:50;;;;;;;24.53;22.93;;;;;;;;;;5034484;28;20862;-71
2022/04/25 01:30:18;;;;;;;63.87;57.57;;;;;;;;;;5035408;28;20553;-71
2022/04/25 01:32:46;;;;;;;41.80;38.43;;;;;;;;;;5034974;28;20458;-71
2022/04/25 01:35:18;;;;;;;34.97;32.30;;;;;;;;;;5035097;28;20898;-71
2022/04/25 01:37:46;;;;;;;10.97;9.90;;;;;;;;;;5034958;28;20458;-72
2022/04/25 01:40:15;;;;;;;7.83;7.07;;;;;;;;;;5034443;28;20465;-72
2022/04/25 01:42:43;;;;;;;22.10;20.40;;;;;;;;;;5034621;28;20469;-72
2022/04/25 01:45:11;;;;;;;48.80;44.73;;;;;;;;;;5034546;28;20453;-72
2022/04/25 01:47:40;;;;;;;43.20;39.60;;;;;;;;;;5035073;28;20866;-72
2022/04/25 01:50:08;;;;;;;17.40;16.20;;;;;;;;;;5034938;28;20447;-71
2022/04/25 01:52:36;;;;;;;26.03;24.30;;;;;;;;;;5034916;28;20455;-72
2022/04/25 01:55:05;;;;;;;39.03;36.27;;;;;;;;;;5034506;28;20812;-72
2022/04/25 01:57:34;;;;;;;25.23;23.47;;;;;;;;;;5034697;28;20508;-72
2022/04/25 02:00:02;;;;;;;27.37;25.67;;;;;;;;;;5034607;28;20528;-72
2022/04/25 02:02:33;;;;;;;14.03;9.83;;;;;;;;;;5034773;28;20466;-72
2022/04/25 02:05:03;;;;;;;14.70;13.37;;;;;;;;;;5035170;28;20881;-72
2022/04/25 02:07:31;;;;;;;30.17;28.23;;;;;;;;;;5035122;28;20454;-72
2022/04/25 02:09:59;;;;;;;12.07;11.20;;;;;;;;;;5035707;28;20494;-72
2022/04/25 02:12:27;;;;;;;25.33;23.47;;;;;;;;;;5035140;28;20486;-71
2022/04/25 02:14:56;;;;;;;8.60;6.73;;;;;;;;;;5034171;28;20468;-72
2022/04/25 02:17:24;;;;;;;34.77;32.33;;;;;;;;;;5033799;28;20709;-72
2022/04/25 02:19:52;;;;;;;88.80;71.47;;;;;;;;;;5034255;28;20446;-71
2022/04/25 02:22:20;;;;;;;73.70;65.87;;;;;;;;;;5033315;28;20486;-72
2022/04/25 02:24:49;;;;;;;85.90;67.47;;;;;;;;;;5034275;28;20454;-72
2022/04/25 02:27:16;;;;;;;75.23;67.33;;;;;;;;;;5036050;28;20458;-72
2022/04/25 02:29:46;;;;;;;86.40;69.00;;;;;;;;;;5035216;28;20450;-72
2022/04/25 02:32:16;;;;;;;69.30;62.57;;;;;;;;;;5034988;28;20493;-72
2022/04/25 02:34:44;;;;;;;74.93;67.53;;;;;;;;;;5034242;28;20494;-72
2022/04/25 02:37:12;;;;;;;74.47;66.30;;;;;;;;;;5034839;28;20446;-71
2022/04/25 02:39:43;;;;;;;85.37;64.87;;;;;;;;;;5034931;28;20699;-72
2022/04/25 02:42:10;;;;;;;57.03;50.90;;;;;;;;;;5034738;28;20450;-72
2022/04/25 02:44:38;;;;;;;14.97;13.83;;;;;;;;;;5034630;28;20461;-72
2022/04/25 02:47:06;;;;;;;26.33;24.20;;;;;;;;;;5034831;28;20454;-72
2022/04/25 02:49:37;;;;;;;20.47;18.87;;;;;;;;;;5034661;28;20462;-72
2022/04/25 02:52:05;;;;;;;14.90;13.53;;;;;;;;;;5033666;28;20571;-72
2022/04/25 02:54:35;;;;;;;7.57;4.43;;;;;;;;;;5035096;28;20557;-72
2022/04/25 02:57:02;;;;;;;23.50;21.57;;;;;;;;;;5034272;28;20450;-73
2022/04/25 02:59:30;;;;;;;10.60;8.70;;;;;;;;;;5034549;28;20465;-72
2022/04/25 03:01:58;;;;;;;47.67;44.10;;;;;;;;;;5034154;28;20889;-72
2022/04/25 03:04:26;;;;;;;68.23;61.03;;;;;;;;;;5034137;28;20867;-72
2022/04/25 03:06:57;;;;;;;18.80;16.93;;;;;;;;;;5034479;28;20477;-72
2022/04/25 03:09:26;;;;;;;15.40;14.20;;;;;;;;;;5037405;28;20484;-72
2022/04/25 03:11:54;;;;;;;12.37;11.27;;;;;;;;;;5037198;28;20485;-72
2022/04/25 03:14:26;;;;;;;10.13;9.23;;;;;;;;;;5038122;28;20490;-72
2022/04/25 03:16:54;;;;;;;10.53;5.80;;;;;;;;;;5037750;28;20465;-72
2022/04/25 03:19:24;;;;;;;7.23;6.60;;;;;;;;;;5036242;28;20859;-72
2022/04/25 03:21:52;;;;;;;8.37;6.80;;;;;;;;;;5038104;28;20520;-72
2022/04/25 03:24:22;;;;;;;5.60;4.23;;;;;;;;;;5037191;28;20859;-72
2022/04/25 03:26:50;;;;;;;8.23;6.43;;;;;;;;;;5036995;28;20469;-72
2022/04/25 03:29:17;;;;;;;9.30;4.60;;;;;;;;;;5037069;28;20485;-72
2022/04/25 03:31:45;;;;;;;6.27;3.53;;;;;;;;;;5036841;28;20568;-72
2022/04/25 03:34:13;;;;;;;12.93;4.73;;;;;;;;;;5037049;28;20490;-72
2022/04/25 03:36:44;;;;;;;7.93;7.13;;;;;;;;;;5037539;28;20451;-72
2022/04/25 03:39:13;;;;;;;7.97;6.17;;;;;;;;;;5038607;28;20466;-72
2022/04/25 03:41:43;;;;;;;7.80;6.57;;;;;;;;;;5037296;28;20768;-73
2022/04/25 03:44:11;;;;;;;5.87;4.10;;;;;;;;;;5038035;28;20480;-72
2022/04/25 03:46:39;;;;;;;8.00;6.33;;;;;;;;;;5038362;28;20540;-72
2022/04/25 03:49:08;;;;;;;10.63;4.10;;;;;;;;;;5037672;28;20816;-73
2022/04/25 03:51:35;;;;;;;6.60;5.37;;;;;;;;;;5038494;28;20576;-71
2022/04/25 03:54:03;;;;;;;7.87;5.03;;;;;;;;;;5038197;28;20462;-72
2022/04/25 03:59:17;;;;;;;10.23;9.27;;;;;;;;;;5036757;28;20489;-71
2022/04/25 04:01:45;;;;;;;7.80;5.37;;;;;;;;;;5036613;28;20454;-71
2022/04/25 04:04:12;;;;;;;5.57;3.60;;;;;;;;;;5037323;28;20466;-71
2022/04/25 04:06:40;;;;;;;8.80;3.60;;;;;;;;;;5037596;28;20447;-71
2022/04/25 04:11:49;;;;;;;7.50;3.80;;;;;;;;;;5034106;28;20476;-71
2022/04/25 04:14:19;;;;;;;10.47;5.43;;;;;;;;;;5037029;28;20463;-71
2022/04/25 04:16:47;;;;;;;7.50;5.03;;;;;;;;;;5035738;28;20462;-71
2022/04/25 04:19:14;;;;;;;9.37;8.63;;;;;;;;;;5036625;28;20476;-71
2022/04/25 04:21:42;;;;;;;9.93;9.03;;;;;;;;;;5035781;28;20474;-71
2022/04/25 04:24:11;;;;;;;5.97;4.87;;;;;;;;;;5036570;28;20599;-71
2022/04/25 04:26:38;;;;;;;50.27;47.17;;;;;;;;;;5036404;28;20519;-71
2022/04/25 04:29:06;;;;;;;10.40;4.70;;;;;;;;;;5036903;28;20917;-71
2022/04/25 04:31:35;;;;;;;7.73;3.77;;;;;;;;;;5036803;28;20724;-71
2022/04/25 04:34:02;;;;;;;6.97;5.33;;;;;;;;;;5036555;28;20559;-70
2022/04/25 04:36:33;;;;;;;7.17;5.80;;;;;;;;;;5035102;28;20457;-72
2022/04/25 04:39:00;;;;;;;14.80;13.37;;;;;;;;;;5034810;28;20489;-71
2022/04/25 04:41:28;;;;;;;5.70;4.07;;;;;;;;;;5035597;28;20512;-71
2022/04/25 04:43:57;;;;;;;11.43;6.53;;;;;;;;;;5034702;28;20492;-71
2022/04/25 04:46:25;;;;;;;8.70;5.33;;;;;;;;;;5034989;28;20480;-71
2022/04/25 04:48:56;;;;;;;12.57;11.47;;;;;;;;;;5034775;28;20888;-71
2022/04/25 04:51:26;;;;;;;11.07;7.17;;;;;;;;;;5035008;28;20482;-71
2022/04/25 04:53:53;;;;;;;11.20;5.57;;;;;;;;;;5036330;28;20449;-71
2022/04/25 04:56:21;;;;;;;5.70;3.83;;;;;;;;;;5034186;28;20456;-72
2022/04/25 04:58:51;;;;;;;6.27;3.97;;;;;;;;;;5034595;28;20460;-71
2022/04/25 05:01:19;;;;;;;12.13;4.63;;;;;;;;;;5034022;28;20683;-71
2022/04/25 05:03:47;;;;;;;8.17;5.27;;;;;;;;;;5034765;28;20482;-71
2022/04/25 05:06:16;;;;;;;7.63;4.00;;;;;;;;;;5033864;28;20456;-71
2022/04/25 05:08:44;;;;;;;12.40;6.40;;;;;;;;;;5034181;28;20454;-71
2022/04/25 05:11:12;;;;;;;8.60;4.40;;;;;;;;;;5033903;28;20730;-72
2022/04/25 05:13:40;;;;;;;6.77;5.93;;;;;;;;;;5034053;28;20456;-72
2022/04/25 05:16:07;;;;;;;11.90;5.70;;;;;;;;;;5035319;28;20731;-72
2022/04/25 05:18:35;;;;;;;7.00;5.40;;;;;;;;;;5035033;28;20467;-72
2022/04/25 05:21:05;;;;;;;14.03;4.47;;;;;;;;;;5033714;28;20451;-72
2022/04/25 05:23:35;;;;;;;8.03;4.97;;;;;;;;;;5033856;28;20532;-72
2022/04/25 05:26:04;;;;;;;8.73;4.50;;;;;;;;;;5034453;28;20839;-72
2022/04/25 05:28:32;;;;;;;7.20;5.23;;;;;;;;;;5034321;28;20970;-72
2022/04/25 05:31:01;;;;;;;7.90;4.97;;;;;;;;;;5034026;28;20501;-72
2022/04/25 05:33:31;;;;;;;9.77;7.57;;;;;;;;;;5033475;28;20486;-72
2022/04/25 05:35:59;;;;;;;7.67;5.07;;;;;;;;;;5030035;28;20874;-72
2022/04/25 05:38:27;;;;;;;11.43;5.93;;;;;;;;;;5028904;28;20446;-71
2022/04/25 05:40:59;;;;;;;9.40;4.37;;;;;;;;;;5031403;28;20446;-72
2022/04/25 05:43:29;;;;;;;8.40;4.17;;;;;;;;;;5032543;28;20577;-72
2022/04/25 05:45:57;;;;;;;9.17;5.20;;;;;;;;;;5032518;28;20541;-72
2022/04/25 05:53:55;;;;;;;6.30;4.40;;;;;;;;;;5032598;28;20774;-71
2022/04/25 05:56:24;;;;;;;14.50;13.27;;;;;;;;;;5032869;28;20555;-71
2022/04/25 05:58:54;;;;;;;10.00;5.20;;;;;;;;;;5034509;28;20481;-71
2022/04/25 06:01:21;;;;;;;9.77;5.47;;;;;;;;;;5032968;28;20434;-71
2022/04/25 06:03:49;;;;;;;19.13;17.37;;;;;;;;;;5033137;28;20462;-72
2022/04/25 06:06:21;;;;;;;8.60;7.47;;;;;;;;;;5034250;28;20500;-71
2022/04/25 06:08:50;;;;;;;35.40;32.47;;;;;;;;;;5041723;28;20453;-71
2022/04/25 06:11:21;;;;;;;7.43;4.17;;;;;;;;;;5054531;28;20446;-70
2022/04/25 06:13:51;;;;;;;10.20;6.50;;;;;;;;;;5053453;28;20493;-72
2022/04/25 06:16:19;;;;;;;6.87;5.60;;;;;;;;;;5051660;28;20488;-71
2022/04/25 06:18:46;;;;;;;11.93;4.30;;;;;;;;;;5031410;28;20900;-71
2022/04/25 06:21:15;;;;;;;11.63;6.27;;;;;;;;;;5033515;28;20460;-72
2022/04/25 06:23:43;;;;;;;20.03;18.53;;;;;;;;;;5020693;28;20463;-72
2022/04/25 06:26:11;;;;;;;6.40;4.50;;;;;;;;;;5013720;28;20456;-72
2022/04/25 06:28:42;;;;;;;13.17;11.83;;;;;;;;;;5017963;28;20770;-72
2022/04/25 06:31:23;;;;;;;8.30;6.00;;;;;;;;;;5025725;28;20561;-73
2022/04/25 06:33:55;;;;;;;7.13;6.13;;;;;;;;;;5032327;28;20478;-71
2022/04/25 06:36:23;;;;;;;5.40;4.73;;;;;;;;;;5033097;28;20464;-70
2022/04/25 06:38:54;;;;;;;37.20;34.07;;;;;;;;;;5033279;28;20561;-70
2022/04/25 06:41:22;;;;;;;8.57;5.37;;;;;;;;;;5033030;28;20499;-71
2022/04/25 06:43:50;;;;;;;22.70;20.83;;;;;;;;;;5036273;28;20456;-71
2022/04/25 06:46:22;;;;;;;43.43;40.50;;;;;;;;;;5036913;28;20502;-71
2022/04/25 06:51:31;;;;;;;9.97;8.93;;;;;;;;;;5015405;28;20846;-70
2022/04/25 06:54:00;;;;;;;7.63;6.77;;;;;;;;;;5028065;28;20486;-70
2022/04/25 06:56:29;;;;;;;7.27;6.30;;;;;;;;;;5036749;28;20504;-70
2022/04/25 06:58:57;;;;;;;10.83;7.83;;;;;;;;;;5035902;28;20454;-70
2022/04/25 07:01:29;;;;;;;8.50;6.37;;;;;;;;;;5035899;28;20883;-70
2022/04/25 07:03:57;;;;;;;25.40;23.80;;;;;;;;;;5036126;28;20454;-70
2022/04/25 07:06:25;;;;;;;6.47;5.03;;;;;;;;;;5036324;28;20454;-70
2022/04/25 07:08:52;;;;;;;12.80;11.70;;;;;;;;;;5017665;28;20793;-71
2022/04/25 07:11:20;;;;;;;16.10;14.87;;;;;;;;;;5018632;28;20867;-71
2022/04/25 07:13:50;;;;;;;13.60;12.60;;;;;;;;;;5025063;28;20585;-71
2022/04/25 07:16:23;;;;;;;7.60;4.90;;;;;;;;;;5036235;28;20469;-70
2022/04/25 07:18:52;;;;;;;9.70;5.93;;;;;;;;;;5035218;28;20484;-70
2022/04/25 07:29:46;;;;;;;8.40;5.87;;;;;;;;;;5036054;28;20881;-73
2022/04/25 07:32:15;;;;;;;10.27;8.23;;;;;;;;;;5035719;28;20489;-72
2022/04/25 07:34:45;;;;;;;26.30;24.50;;;;;;;;;;5034359;28;20480;-71
2022/04/25 07:37:16;;;;;;;6.97;4.80;;;;;;;;;;5017903;28;20565;-71
2022/04/25 07:39:45;;;;;;;8.10;4.30;;;;;;;;;;5036141;28;20460;-71
2022/04/25 07:42:15;;;;;;;7.70;4.00;;;;;;;;;;5035709;28;20481;-71
2022/04/25 07:44:43;;;;;;;8.60;6.10;;;;;;;;;;5036278;28;20450;-70
2022/04/25 07:47:11;;;;;;;11.17;6.87;;;;;;;;;;5036202;28;20446;-71
2022/04/25 07:49:43;;;;;;;7.93;7.00;;;;;;;;;;5035552;28;20458;-70
2022/04/25 07:52:12;;;;;;;9.90;6.40;;;;;;;;;;5036847;28;20529;-69
2022/04/25 07:54:40;;;;;;;8.57;3.87;;;;;;;;;;5037057;28;20462;-71
2022/04/25 07:57:08;;;;;;;9.90;6.73;;;;;;;;;;5037084;28;20458;-70
2022/04/25 07:59:42;;;;;;;60.93;56.20;;;;;;;;;;5036740;28;20462;-70
2022/04/25 08:02:10;;;;;;;21.70;14.23;;;;;;;;;;5037036;28;20446;-70
2022/04/25 08:04:41;;;;;;;63.90;58.83;;;;;;;;;;5037735;28;20467;-70
2022/04/25 08:07:10;;;;;;;16.10;15.00;;;;;;;;;;5021714;28;20455;-69
2022/04/25 08:09:43;;;;;;;14.27;12.83;;;;;;;;;;5016113;28;20474;-70
2022/04/25 08:18:04;;;;;;;11.13;6.87;;;;;;;;;;5036084;28;20943;-70
2022/04/25 08:20:34;;;;;;;12.20;11.13;;;;;;;;;;5030056;28;20795;-70
2022/04/25 08:23:03;;;;;;;15.83;10.30;;;;;;;;;;5027599;28;20872;-71
2022/04/25 08:25:35;;;;;;;9.80;6.97;;;;;;;;;;5020570;28;20932;-70
2022/04/25 08:28:04;;;;;;;7.73;4.90;;;;;;;;;;5034424;28;20451;-70
2022/04/25 08:30:32;;;;;;;10.30;7.17;;;;;;;;;;5034754;28;20462;-69
2022/04/25 08:33:02;;;;;;;6.33;4.27;;;;;;;;;;5036015;28;20924;-70
2022/04/25 08:35:30;;;;;;;8.57;4.80;;;;;;;;;;5031445;28;20524;-69
2022/04/25 08:37:58;;;;;;;9.70;4.60;;;;;;;;;;5015379;28;20464;-69
2022/04/25 08:40:30;;;;;;;10.13;6.10;;;;;;;;;;5019106;28;20447;-69
2022/04/25 08:43:01;;;;;;;9.10;6.50;;;;;;;;;;5044951;28;20486;-71
2022/04/25 08:45:30;;;;;;;9.13;6.37;;;;;;;;;;5031022;28;20454;-70
2022/04/25 08:47:59;;;;;;;8.87;7.97;;;;;;;;;;5027312;28;21086;-68
2022/04/25 08:50:30;;;;;;;7.43;5.23;;;;;;;;;;5027960;28;20738;-69
2022/04/25 08:55:48;;;;;;;9.10;6.13;;;;;;;;;;5017742;28;20481;-71
2022/04/25 08:58:31;;;;;;;9.73;8.73;;;;;;;;;;5016006;28;20517;-70
2022/04/25 09:01:11;;;;;;;11.43;10.07;;;;;;;;;;5019217;28;20464;-71
2022/04/25 09:03:59;;;;;;;15.07;13.80;;;;;;;;;;5036785;28;20905;-71
2022/04/25 09:06:27;;;;;;;8.10;6.17;;;;;;;;;;5034631;28;20479;-69
2022/04/25 09:09:10;;;;;;;8.43;5.50;;;;;;;;;;5055520;28;20438;-71
2022/04/25 09:14:25;;;;;;;5.37;2.77;;;;;;;;;;5034775;28;20469;-71
2022/04/25 09:16:54;;;;;;;5.80;4.00;;;;;;;;;;5039550;28;20460;-71
2022/04/25 09:19:21;;;;;;;8.10;6.67;;;;;;;;;;5020654;28;20727;-70
2022/04/25 09:21:50;;;;;;;6.93;4.07;;;;;;;;;;5030316;28;20454;-70
2022/04/25 09:24:21;;;;;;;7.93;6.43;;;;;;;;;;5022775;28;20463;-70
2022/04/25 09:26:56;;;;;;;8.70;6.27;;;;;;;;;;5014675;28;20483;-70
2022/04/25 09:29:36;;;;;;;16.27;14.97;;;;;;;;;;5014133;28;20455;-69
2022/04/25 09:32:09;;;;;;;9.50;8.67;;;;;;;;;;5015237;28;20466;-71
2022/04/25 09:37:42;;;;;;;9.00;7.00;;;;;;;;;;5020745;28;20441;-70
2022/04/25 09:40:16;;;;;;;6.73;6.07;;;;;;;;;;5031986;28;20453;-71
2022/04/25 09:43:27;;;;;;;14.43;13.07;;;;;;;;;;5029729;28;21056;-71
2022/04/25 09:46:26;;;;;;;52.87;49.80;;;;;;;;;;5026339;28;20582;-71
2022/04/25 09:49:37;;;;;;;;;;;;;;;;;;;;;
2022/04/25 09:52:11;;;;;;;14.40;13.03;;;;;;;;;;5029437;28;20450;-72
2022/04/25 09:54:43;;;;;;;19.23;18.03;;;;;;;;;;5018493;28;20486;-71
2022/04/25 09:57:28;;;;;;;11.90;8.07;;;;;;;;;;5013762;28;20566;-71
2022/04/25 10:00:00;;;;;;;8.60;5.90;;;;;;;;;;5013957;28;20531;-71
2022/04/25 10:02:39;;;;;;;9.23;5.43;;;;;;;;;;5013981;28;20470;-70
2022/04/25 10:05:15;;;;;;;37.27;35.40;;;;;;;;;;5014620;28;20451;-70
2022/04/25 10:07:44;;;;;;;8.10;7.00;;;;;;;;;;5032526;28;20462;-71
2022/04/25 10:10:12;;;;;;;13.43;12.27;;;;;;;;;;5015192;28;20448;-71
2022/04/25 10:12:42;;;;;;;12.47;11.47;;;;;;;;;;5019276;28;20513;-72
2022/04/25 10:15:10;;;;;;;17.97;16.73;;;;;;;;;;5027541;28;20446;-71
2022/04/25 10:17:40;;;;;;;35.80;33.97;;;;;;;;;;5037296;28;20831;-72
2022/04/25 10:20:22;;;;;;;21.33;19.83;;;;;;;;;;5040768;28;20528;-72
2022/04/25 10:22:53;;;;;;;22.30;20.70;;;;;;;;;;5038007;28;20457;-72
2022/04/25 10:25:27;;;;;;;7.27;5.57;;;;;;;;;;5038299;28;20464;-70
2022/04/25 10:27:56;;;;;;;109.30;103.07;;;;;;;;;;5036246;28;20457;-71
2022/04/25 10:30:31;;;;;;;82.17;77.87;;;;;;;;;;5038462;28;20811;-71
2022/04/25 10:33:26;;;;;;;25.87;24.30;;;;;;;;;;5038536;28;20457;-71
2022/04/25 10:35:55;;;;;;;19.83;18.33;;;;;;;;;;5022409;28;20469;-71
2022/04/25 10:38:55;;;;;;;22.13;20.50;;;;;;;;;;5021410;28;20546;-70
2022/04/25 10:44:35;;;;;;;22.37;20.17;;;;;;;;;;5019050;28;20505;-73
2022/04/25 10:47:28;;;;;;;41.37;39.13;;;;;;;;;;5018645;28;20459;-71
2022/04/25 10:50:05;;;;;;;8.93;6.40;;;;;;;;;;5036845;28;20722;-72
2022/04/25 10:52:55;;;;;;;10.60;7.50;;;;;;;;;;5026787;28;20997;-70
2022/04/25 10:55:30;;;;;;;12.43;11.20;;;;;;;;;;5022271;28;21044;-71
2022/04/25 10:58:17;;;;;;;7.53;6.20;;;;;;;;;;5024797;28;20470;-70
2022/04/25 11:00:49;;;;;;;27.23;25.53;;;;;;;;;;5033689;28;20549;-71
2022/04/25 11:03:18;;;;;;;10.20;5.70;;;;;;;;;;5020515;28;20456;-69
2022/04/25 11:05:50;;;;;;;8.50;6.63;;;;;;;;;;5028139;28;20496;-70
2022/04/25 11:08:32;;;;;;;9.03;5.70;;;;;;;;;;5019303;28;20477;-70
2022/04/25 11:11:06;;;;;;;8.60;7.00;;;;;;;;;;5025565;28;20548;-71
2022/04/25 11:13:35;;;;;;;10.23;4.70;;;;;;;;;;5030462;28;20530;-71
2022/04/25 11:16:16;;;;;;;7.30;5.57;;;;;;;;;;5025541;28;20501;-71
2022/04/25 11:18:44;;;;;;;9.03;4.23;;;;;;;;;;5017412;28;20446;-70
2022/04/25 11:21:16;;;;;;;8.83;4.73;;;;;;;;;;5015755;28;20513;-71
2022/04/25 11:23:50;;;;;;;8.53;6.13;;;;;;;;;;5030183;28;20470;-71
2022/04/25 11:26:36;;;;;;;9.00;6.90;;;;;;;;;;5017162;28;20598;-71
2022/04/25 11:29:13;;;;;;;8.57;6.13;;;;;;;;;;5010435;28;20556;-73
2022/04/25 11:31:47;;;;;;;9.47;6.73;;;;;;;;;;5016999;28;20955;-72
2022/04/25 11:37:24;;;;;;;8.83;5.10;;;;;;;;;;5141521;27;20591;-72
2022/04/25 11:39:59;;;;;;;8.07;5.13;;;;;;;;;;5129492;27;20545;-72
2022/04/25 11:42:31;;;;;;;7.80;5.50;;;;;;;;;;5130837;28;20446;-72
2022/04/25 11:44:58;;;;;;;11.23;7.50;;;;;;;;;;5130607;27;20450;-72
2022/04/25 11:47:39;;;;;;;15.43;13.97;;;;;;;;;;5126679;27;20455;-71
2022/04/25 11:50:12;;;;;;;7.03;5.33;;;;;;;;;;5116503;27;20466;-73
2022/04/25 11:52:47;;;;;;;11.63;6.97;;;;;;;;;;5130142;28;20462;-74
2022/04/25 11:55:15;;;;;;;8.33;5.97;;;;;;;;;;5130840;28;20542;-73
2022/04/25 11:57:48;;;;;;;7.97;6.23;;;;;;;;;;5133444;27;20454;-72
2022/04/25 12:00:17;;;;;;;7.90;4.97;;;;;;;;;;5133265;27;20539;-71
2022/04/25 12:02:46;;;;;;;11.70;7.30;;;;;;;;;;5133144;27;21016;-72
2022/04/25 12:05:14;;;;;;;7.80;5.70;;;;;;;;;;5133970;28;21044;-72
2022/04/25 12:16:08;;;;;;;6.10;4.57;;;;;;;;;;5126739;28;21189;-72
2022/04/25 12:18:47;;;;;;;9.00;6.30;;;;;;;;;;5129394;27;20792;-72
2022/04/25 12:24:23;;;;;;;9.30;8.50;;;;;;;;;;5122885;27;20475;-72
2022/04/25 12:27:11;;;;;;;5.63;3.80;;;;;;;;;;5123174;27;20467;-72
2022/04/25 12:30:08;;;;;;;6.97;4.80;;;;;;;;;;5125708;28;20524;-73
2022/04/25 12:32:58;;;;;;;11.20;5.27;;;;;;;;;;5131800;27;20877;-73
2022/04/25 12:35:51;;;;;;;4.73;3.43;;;;;;;;;;5120306;27;20486;-73
2022/04/25 12:38:46;;;;;;;6.40;4.10;;;;;;;;;;5129400;28;20519;-73
2022/04/25 12:41:23;;;;;;;5.43;2.93;;;;;;;;;;5113610;27;20548;-72
2022/04/25 12:43:54;;;;;;;6.70;4.97;;;;;;;;;;5130046;28;20851;-73
2022/04/25 12:46:41;;;;;;;6.47;3.33;;;;;;;;;;5124705;27;20451;-72
2022/04/25 12:49:12;;;;;;;7.00;3.40;;;;;;;;;;5110936;28;21036;-72
2022/04/25 12:51:45;;;;;;;7.07;4.30;;;;;;;;;;5112737;28;20546;-73
2022/04/25 12:54:24;;;;;;;7.03;3.33;;;;;;;;;;5114643;28;20451;-73
2022/04/25 12:56:55;;;;;;;5.97;4.83;;;;;;;;;;5111729;28;20613;-73
2022/04/25 12:59:30;;;;;;;5.80;4.30;;;;;;;;;;5110674;28;20464;-73
2022/04/25 13:02:17;;;;;;;5.30;3.80;;;;;;;;;;5112518;28;20459;-72
2022/04/25 13:04:51;;;;;;;8.73;7.53;;;;;;;;;;5113628;28;20450;-72
2022/04/25 13:07:20;;;;;;;9.70;7.10;;;;;;;;;;5112747;28;20541;-72
2022/04/25 13:09:48;;;;;;;6.07;3.40;;;;;;;;;;5113199;27;20455;-73
2022/04/25 13:12:17;;;;;;;4.33;2.90;;;;;;;;;;5110649;28;20562;-72
2022/04/25 13:14:52;;;;;;;4.50;4.10;;;;;;;;;;5114563;28;20504;-73
2022/04/25 13:17:25;;;;;;;6.63;3.93;;;;;;;;;;5112692;27;21016;-73
2022/04/25 13:19:55;;;;;;;6.50;4.13;;;;;;;;;;5114498;28;20461;-73
2022/04/25 13:22:24;;;;;;;5.97;3.83;;;;;;;;;;5115661;28;20549;-72
2022/04/25 13:24:54;;;;;;;14.87;4.87;;;;;;;;;;5117008;28;20511;-74
2022/04/25 13:27:26;;;;;;;8.07;5.80;;;;;;;;;;5118574;27;20464;-73
2022/04/25 13:29:55;;;;;;;6.70;4.73;;;;;;;;;;5114116;28;20473;-74
2022/04/25 13:32:26;;;;;;;5.67;4.80;;;;;;;;;;5115280;28;20482;-71
2022/04/25 13:34:54;;;;;;;6.83;5.30;;;;;;;;;;5115489;28;20474;-72
2022/04/25 13:37:22;;;;;;;5.60;4.13;;;;;;;;;;5111915;28;20518;-72
2022/04/25 13:39:50;;;;;;;6.43;4.93;;;;;;;;;;5114148;28;21155;-73
2022/04/25 13:42:18;;;;;;;6.90;4.70;;;;;;;;;;5114131;28;20459;-71
2022/04/25 13:44:46;;;;;;;6.10;3.87;;;;;;;;;;5114132;28;20462;-71
2022/04/25 13:47:24;;;;;;;6.43;3.57;;;;;;;;;;5117460;28;20535;-71
2022/04/25 13:50:00;;;;;;;5.40;3.87;;;;;;;;;;5113272;28;20867;-72
2022/04/25 13:52:28;;;;;;;7.80;5.90;;;;;;;;;;5109884;28;20470;-72
2022/04/25 13:54:56;;;;;;;7.87;5.27;;;;;;;;;;5109873;28;20499;-73
2022/04/25 13:57:24;;;;;;;7.20;4.77;;;;;;;;;;5123294;27;20532;-73
2022/04/25 13:59:51;;;;;;;11.70;8.10;;;;;;;;;;5112317;28;20829;-74
2022/04/25 14:05:07;;;;;;;6.47;4.80;;;;;;;;;;5113633;27;20453;-73
2022/04/25 14:07:37;;;;;;;7.80;5.17;;;;;;;;;;5112885;27;20878;-72
2022/04/25 14:10:04;;;;;;;12.43;5.20;;;;;;;;;;5111179;27;21000;-73
2022/04/25 14:12:37;;;;;;;7.60;5.23;;;;;;;;;;5112442;27;20457;-73
2022/04/25 14:15:06;;;;;;;7.20;3.63;;;;;;;;;;5116490;28;20926;-73
2022/04/25 14:17:35;;;;;;;8.90;6.70;;;;;;;;;;5111603;28;21116;-74
2022/04/25 14:20:03;;;;;;;7.30;4.17;;;;;;;;;;5112007;28;20526;-73
2022/04/25 14:22:31;;;;;;;10.30;6.23;;;;;;;;;;5114687;28;20813;-72
2022/04/25 14:25:09;;;;;;;8.10;4.83;;;;;;;;;;5114010;28;20462;-74
2022/04/25 14:27:43;;;;;;;6.10;4.80;;;;;;;;;;5110403;28;20468;-73
2022/04/25 14:30:13;;;;;;;6.40;5.23;;;;;;;;;;5110197;28;20741;-73
2022/04/25 14:32:43;;;;;;;5.07;3.60;;;;;;;;;;5103441;28;20489;-72
2022/04/25 14:35:13;;;;;;;5.40;3.60;;;;;;;;;;5112161;28;20463;-72
2022/04/25 14:37:41;;;;;;;4.30;3.30;;;;;;;;;;5113886;28;20912;-73
2022/04/25 14:40:09;;;;;;;7.73;4.90;;;;;;;;;;5116349;28;20449;-73
2022/04/25 14:42:40;;;;;;;5.83;3.43;;;;;;;;;;5114800;28;20519;-72
2022/04/25 14:45:08;;;;;;;5.60;3.17;;;;;;;;;;5096710;28;20490;-71
2022/04/25 14:47:37;;;;;;;5.90;4.10;;;;;;;;;;5105762;28;20467;-70
2022/04/25 14:55:37;;;;;;;7.07;3.80;;;;;;;;;;5094089;28;20422;-72
2022/04/25 14:58:06;;;;;;;8.37;4.23;;;;;;;;;;5104846;28;20562;-72
2022/04/25 15:00:38;;;;;;;6.43;4.13;;;;;;;;;;5109216;28;20454;-70
2022/04/25 15:03:06;;;;;;;7.57;3.50;;;;;;;;;;5114742;28;20443;-73
2022/04/25 15:05:41;;;;;;;14.80;4.20;;;;;;;;;;5108673;28;20459;-73
2022/04/25 15:08:17;;;;;;;5.80;3.73;;;;;;;;;;5093750;28;20442;-72
2022/04/25 15:10:47;;;;;;;6.53;3.40;;;;;;;;;;5103764;28;20446;-72
2022/04/25 15:13:15;;;;;;;6.10;2.20;;;;;;;;;;5113416;28;21046;-72
2022/04/25 15:15:43;;;;;;;4.13;2.80;;;;;;;;;;5114261;28;20450;-71
2022/04/25 15:18:12;;;;;;;5.23;3.33;;;;;;;;;;5113470;28;20479;-70
2022/04/25 15:20:41;;;;;;;3.63;2.53;;;;;;;;;;5113450;28;20465;-70
2022/04/25 15:23:10;;;;;;;3.57;2.53;;;;;;;;;;5113874;28;20458;-70
2022/04/25 15:25:39;;;;;;;6.83;4.63;;;;;;;;;;5114449;28;20455;-71
2022/04/25 15:28:07;;;;;;;2.67;1.90;;;;;;;;;;5110714;28;20481;-72
2022/04/25 15:30:37;;;;;;;10.90;6.57;;;;;;;;;;5114445;28;20459;-71
2022/04/25 15:33:07;;;;;;;6.90;4.20;;;;;;;;;;5112759;28;20463;-72
2022/04/25 15:35:35;;;;;;;7.70;5.70;;;;;;;;;;5113783;28;20493;-71
2022/04/25 15:38:04;;;;;;;5.90;3.90;;;;;;;;;;5113505;28;20478;-72
2022/04/25 15:40:40;;;;;;;5.70;4.53;;;;;;;;;;5114161;28;21168;-73
2022/04/25 15:43:10;;;;;;;5.83;3.90;;;;;;;;;;5112890;28;20550;-73
2022/04/25 15:45:39;;;;;;;9.57;5.63;;;;;;;;;;5094339;28;20547;-72
2022/04/25 15:48:10;;;;;;;4.73;3.57;;;;;;;;;;5113920;28;20478;-73
2022/04/25 15:50:38;;;;;;;7.00;4.50;;;;;;;;;;5113679;28;20458;-73
2022/04/25 15:53:11;;;;;;;4.67;2.30;;;;;;;;;;5110650;28;20453;-74
2022/04/25 15:58:24;;;;;;;6.50;3.57;;;;;;;;;;5095087;28;20474;-73
2022/04/25 16:00:53;;;;;;;5.20;3.37;;;;;;;;;;5102838;28;20458;-74
2022/04/25 16:03:21;;;;;;;3.90;2.50;;;;;;;;;;5113657;28;20457;-73